Time;durP1;ratioP1;P1;durP2;ratioP2;P2;SDS_P1;SDS_P2;PMS_P1;PMS_P2;Temp;Humidity;BMP_temperature;BMP_pressure;BME280_temperature;BME280_humidity;BME280_pressure;Samples;Min_cycle;Max_cycle;Signal;HPM_P1;HPM_P2
2021/08/15 00:01:08;;;;;;;25.70;15.43;;;;;;;16.69;72.73;100475.31;5142287;27;20051;-80
2021/08/15 00:03:35;;;;;;;24.08;14.40;;;;;;;16.64;72.65;100477.22;5142779;27;20058;-80
2021/08/15 00:06:03;;;;;;;25.65;15.80;;;;;;;16.59;72.50;100476.66;5142400;27;20051;-80
2021/08/15 00:08:32;;;;;;;23.13;15.30;;;;;;;16.56;73.04;100471.72;5142314;27;20051;-80
2021/08/15 00:11:01;;;;;;;26.40;16.27;;;;;;;16.53;73.14;100464.81;5142557;27;20058;-80
2021/08/15 00:13:29;;;;;;;25.50;15.13;;;;;;;16.51;73.39;100481.25;5135292;27;20070;-81
2021/08/15 00:15:56;;;;;;;25.42;17.10;;;;;;;16.51;73.34;100472.00;5137633;27;20066;-79
2021/08/15 00:18:26;;;;;;;24.40;16.05;;;;;;;16.48;73.42;100467.88;5142418;27;20061;-79
2021/08/15 00:20:53;;;;;;;24.15;16.15;;;;;;;16.47;73.60;100469.06;5141704;27;20054;-79
2021/08/15 00:23:21;;;;;;;24.35;15.00;;;;;;;16.49;73.38;100469.53;5141723;27;20047;-80
2021/08/15 00:25:50;;;;;;;22.42;15.75;;;;;;;16.51;72.99;100461.56;5137939;27;20055;-79
2021/08/15 00:28:17;;;;;;;24.02;15.00;;;;;;;16.56;72.64;100466.09;5141739;27;20406;-79
2021/08/15 00:30:44;;;;;;;22.00;15.40;;;;;;;16.55;72.55;100459.66;5141882;27;20047;-78
2021/08/15 00:33:12;;;;;;;22.90;14.82;;;;;;;16.55;72.45;100465.28;5141646;27;20047;-79
2021/08/15 00:35:39;;;;;;;21.73;15.55;;;;;;;16.53;72.88;100462.03;5142135;27;20059;-78
2021/08/15 00:38:06;;;;;;;24.58;15.35;;;;;;;16.54;73.21;100457.19;5141959;27;20062;-79
2021/08/15 00:40:34;;;;;;;27.65;17.05;;;;;;;16.53;73.55;100452.78;5142211;27;20051;-78
2021/08/15 00:43:02;;;;;;;23.30;16.65;;;;;;;16.50;73.45;100448.66;5143054;27;20043;-79
2021/08/15 00:45:30;;;;;;;23.13;15.52;;;;;;;16.47;73.27;100440.94;5141789;27;20054;-79
2021/08/15 00:48:07;;;;;;;28.88;17.35;;;;;;;16.45;73.57;100443.28;5141958;27;20056;-80
2021/08/15 00:50:35;;;;;;;26.48;16.50;;;;;;;16.40;73.75;100440.75;5146498;27;20387;-79
2021/08/15 00:53:02;;;;;;;27.15;17.65;;;;;;;16.38;73.78;100443.09;5141777;27;20047;-78
2021/08/15 00:55:29;;;;;;;24.27;17.02;;;;;;;16.36;74.20;100439.81;5140772;27;20062;-79
2021/08/15 00:57:58;;;;;;;26.20;17.13;;;;;;;16.32;73.87;100431.25;5140707;27;20058;-79
2021/08/15 01:00:26;;;;;;;24.00;16.10;;;;;;;16.35;73.60;100422.09;5141746;27;20482;-79
2021/08/15 01:02:54;;;;;;;22.57;15.77;;;;;;;16.32;73.95;100433.25;5141034;27;20079;-79
2021/08/15 01:05:22;;;;;;;28.70;16.50;;;;;;;16.31;73.74;100432.41;5120374;27;20357;-78
2021/08/15 01:07:52;;;;;;;26.77;17.50;;;;;;;16.32;73.98;100433.25;5119862;28;20055;-79
2021/08/15 01:10:19;;;;;;;25.52;16.60;;;;;;;16.26;73.95;100421.44;5124045;27;20066;-79
2021/08/15 01:12:50;;;;;;;22.25;15.98;;;;;;;16.30;74.14;100419.53;5120502;28;20063;-79
2021/08/15 01:15:19;;;;;;;27.45;17.02;;;;;;;16.23;74.39;100417.34;5120774;28;20054;-78
2021/08/15 01:17:47;;;;;;;28.77;17.02;;;;;;;16.21;74.41;100416.88;5121118;28;20054;-79
2021/08/15 01:20:18;;;;;;;26.38;17.38;;;;;;;16.22;74.05;100406.44;5120417;28;20147;-79
2021/08/15 01:22:47;;;;;;;26.83;18.42;;;;;;;16.18;74.20;100417.56;5120124;28;20059;-79
2021/08/15 01:25:15;;;;;;;27.90;17.23;;;;;;;16.23;74.23;100403.28;5137561;27;20051;-79
2021/08/15 01:27:44;;;;;;;27.17;17.35;;;;;;;16.17;74.19;100407.50;5140611;27;20055;-79
2021/08/15 01:30:15;;;;;;;25.92;17.73;;;;;;;16.11;74.24;100406.13;5139801;27;20051;-78
2021/08/15 01:32:44;;;;;;;28.52;17.30;;;;;;;16.06;74.29;100400.72;5139710;27;20043;-79
2021/08/15 01:35:12;;;;;;;26.45;17.75;;;;;;;16.06;74.41;100409.16;5140608;27;20399;-79
2021/08/15 01:37:42;;;;;;;28.65;18.17;;;;;;;16.06;74.72;100409.16;5140574;27;20047;-79
2021/08/15 01:40:12;;;;;;;24.52;18.00;;;;;;;16.02;74.87;100408.22;5138843;27;20055;-79
2021/08/15 01:42:40;;;;;;;;;;;;;;;15.96;74.95;100407.66;5141033;27;20495;-78
2021/08/15 01:45:10;;;;;;;30.73;18.40;;;;;;;15.97;74.61;100400.03;5140703;27;19919;-79
2021/08/15 01:47:41;;;;;;;28.85;18.50;;;;;;;15.98;74.89;100410.09;5139988;27;20047;-79
2021/08/15 01:50:09;;;;;;;26.85;17.88;;;;;;;15.99;74.86;100414.56;5145706;27;20472;-79
2021/08/15 01:52:36;;;;;;;27.90;17.75;;;;;;;15.97;74.69;100409.28;5139799;27;20051;-79
2021/08/15 01:55:05;;;;;;;27.17;18.08;;;;;;;15.97;74.78;100406.47;5139925;27;20043;-79
2021/08/15 01:57:32;;;;;;;31.42;18.42;;;;;;;15.98;74.72;100405.31;5139668;27;20125;-79
2021/08/15 02:00:00;;;;;;;27.45;17.23;;;;;;;16.01;74.68;100404.59;5140147;27;20054;-79
2021/08/15 02:02:27;;;;;;;26.02;17.38;;;;;;;15.99;74.81;100392.09;5139945;27;20118;-80
2021/08/15 02:04:55;;;;;;;27.95;18.40;;;;;;;16.01;74.77;100401.78;5139862;27;20055;-80
2021/08/15 02:07:23;;;;;;;27.55;17.45;;;;;;;16.00;74.71;100393.69;5139711;27;20468;-79
2021/08/15 02:09:50;;;;;;;27.10;17.80;;;;;;;16.00;74.54;100396.50;5139526;27;20484;-79
2021/08/15 02:12:17;;;;;;;24.92;16.95;;;;;;;16.00;74.39;100390.91;5139959;27;20070;-78
2021/08/15 02:14:45;;;;;;;25.05;16.73;;;;;;;15.98;74.72;100387.63;5138987;27;20415;-79
2021/08/15 02:17:12;;;;;;;26.05;17.83;;;;;;;15.95;74.43;100374.28;5139804;27;20058;-78
2021/08/15 02:19:39;;;;;;;28.50;18.42;;;;;;;15.97;74.52;100374.75;5139159;27;20058;-79
2021/08/15 02:22:08;;;;;;;31.75;19.38;;;;;;;15.96;74.23;100371.13;5139615;27;20051;-79
2021/08/15 02:24:35;;;;;;;29.60;18.88;;;;;;;15.94;74.25;100372.66;5139461;27;20055;-78
2021/08/15 02:27:03;;;;;;;29.95;19.27;;;;;;;15.91;74.27;100371.38;5138754;27;20058;-79
2021/08/15 02:29:31;;;;;;;28.42;18.13;;;;;;;15.90;74.11;100371.75;5139106;27;20051;-79
2021/08/15 02:31:58;;;;;;;28.35;19.08;;;;;;;15.88;74.54;100365.66;5140461;27;20055;-79
2021/08/15 02:34:27;;;;;;;28.75;18.45;;;;;;;15.87;74.69;100378.84;5139748;27;20062;-79
2021/08/15 02:36:55;;;;;;;29.20;18.83;;;;;;;15.82;74.53;100371.50;5139179;27;20047;-80
2021/08/15 02:39:23;;;;;;;24.92;18.00;;;;;;;15.80;74.30;100373.84;5138796;27;20054;-79
2021/08/15 02:41:50;;;;;;;27.65;19.25;;;;;;;15.77;74.23;100374.56;5140253;27;20047;-78
2021/08/15 02:44:18;;;;;;;23.67;17.85;;;;;;;15.72;74.80;100365.53;5139096;27;20062;-78
2021/08/15 02:46:45;;;;;;;29.67;19.55;;;;;;;15.73;74.44;100368.00;5140561;27;20047;-78
2021/08/15 02:49:13;;;;;;;28.45;17.75;;;;;;;15.71;74.24;100358.28;5137741;27;20050;-78
2021/08/15 02:51:40;;;;;;;30.98;19.13;;;;;;;15.69;74.40;100367.03;5136660;27;20059;-79
2021/08/15 02:54:07;;;;;;;26.80;18.20;;;;;;;15.64;74.11;100361.63;5137069;27;20044;-79
2021/08/15 02:56:36;;;;;;;27.15;18.20;;;;;;;15.57;74.56;100367.03;5136838;27;20047;-79
2021/08/15 02:59:03;;;;;;;26.10;17.70;;;;;;;15.57;74.38;100353.00;5137141;27;20062;-78
2021/08/15 03:01:31;;;;;;;26.65;16.30;;;;;;;15.55;74.20;100350.53;5137114;27;20043;-79
2021/08/15 03:03:58;;;;;;;26.25;16.70;;;;;;;15.60;74.00;100346.66;5136530;27;20054;-78
2021/08/15 03:06:25;;;;;;;26.80;16.70;;;;;;;15.57;73.82;100341.78;5136815;27;20467;-79
2021/08/15 03:08:52;;;;;;;26.95;17.25;;;;;;;15.56;73.51;100342.91;5136552;27;20062;-77
2021/08/15 03:11:20;;;;;;;25.25;18.23;;;;;;;15.51;74.07;100329.94;5136683;27;20462;-79
2021/08/15 03:17:11;;;;;;;26.85;18.80;;;;;;;15.42;74.40;100332.88;3904149;28;21830;-78
2021/08/15 03:19:39;;;;;;;31.90;19.48;;;;;;;15.41;74.40;100322.84;5136718;28;20132;-78
2021/08/15 03:22:07;;;;;;;27.70;18.85;;;;;;;15.39;74.43;100327.97;5137141;28;20059;-78
2021/08/15 03:24:35;;;;;;;25.50;18.27;;;;;;;15.39;74.47;100322.38;5149814;27;20046;-77
2021/08/15 03:27:03;;;;;;;28.98;19.05;;;;;;;15.39;74.47;100322.38;5157357;27;20399;-79
2021/08/15 03:29:31;;;;;;;32.30;19.95;;;;;;;15.36;74.50;100311.81;5157483;27;20069;-77
2021/08/15 03:31:58;;;;;;;29.83;19.90;;;;;;;15.31;74.86;100314.06;5157116;27;20062;-79
2021/08/15 03:34:27;;;;;;;28.77;19.55;;;;;;;15.22;75.29;100309.38;5154363;27;20482;-79
2021/08/15 03:36:54;;;;;;;29.08;19.10;;;;;;;15.27;74.45;100308.31;5162050;27;20047;-80
2021/08/15 03:39:22;;;;;;;29.75;19.67;;;;;;;15.23;74.64;100316.63;5161681;27;20051;-80
2021/08/15 03:41:49;;;;;;;30.92;19.30;;;;;;;15.23;74.84;100308.19;5162160;27;20054;-79
2021/08/15 03:44:17;;;;;;;27.58;18.63;;;;;;;15.19;74.65;100310.06;5160968;27;20066;-78
2021/08/15 03:46:45;;;;;;;25.85;17.40;;;;;;;15.21;74.30;100306.91;5161407;27;20365;-80
2021/08/15 03:49:13;;;;;;;27.63;18.35;;;;;;;15.21;74.37;100309.72;5160872;27;20046;-80
2021/08/15 03:51:42;;;;;;;27.55;17.90;;;;;;;15.19;74.26;100314.88;5161287;27;20047;-81
2021/08/15 03:54:09;;;;;;;27.23;18.02;;;;;;;15.18;74.38;100302.00;5155599;27;20047;-80
2021/08/15 03:56:36;;;;;;;29.58;17.70;;;;;;;15.17;74.79;100305.97;5140491;27;20395;-80
2021/08/15 03:59:04;;;;;;;27.02;18.80;;;;;;;15.15;74.24;100305.50;5140113;27;20494;-80
2021/08/15 04:01:31;;;;;;;29.65;18.73;;;;;;;15.12;74.67;100304.22;5140150;27;20058;-80
2021/08/15 04:03:58;;;;;;;25.42;18.40;;;;;;;15.10;74.79;100303.75;5144205;27;20081;-80
2021/08/15 04:06:27;;;;;;;33.20;18.90;;;;;;;15.11;75.15;100304.56;5161343;27;20051;-79
2021/08/15 04:08:56;;;;;;;30.27;19.63;;;;;;;15.11;74.90;100305.38;5160794;27;20050;-79
2021/08/15 04:11:23;;;;;;;27.33;18.35;;;;;;;15.13;75.04;100297.44;5161820;27;20050;-79
2021/08/15 04:13:51;;;;;;;29.08;18.65;;;;;;;15.15;74.95;100305.50;5160584;27;20062;-80
2021/08/15 04:16:18;;;;;;;28.48;18.95;;;;;;;15.17;74.83;100294.75;5160509;27;20055;-80
2021/08/15 04:18:45;;;;;;;27.83;18.45;;;;;;;15.17;74.77;100295.56;5160076;27;20054;-80
2021/08/15 04:21:13;;;;;;;29.50;20.98;;;;;;;15.17;74.75;100303.19;5159063;27;20451;-78
2021/08/15 04:23:40;;;;;;;32.65;20.60;;;;;;;15.14;75.28;100299.09;5160104;27;20042;-80
2021/08/15 04:26:09;;;;;;;31.25;19.88;;;;;;;15.18;75.24;100291.63;5161281;27;20046;-79
2021/08/15 04:28:36;;;;;;;32.08;20.33;;;;;;;15.21;75.19;100296.50;5160249;27;20057;-80
2021/08/15 04:31:04;;;;;;;33.42;20.42;;;;;;;15.26;74.88;100291.84;5160091;27;20055;-80
2021/08/15 04:33:31;;;;;;;27.48;19.33;;;;;;;15.26;74.96;100295.44;5159582;27;20116;-80
2021/08/15 04:35:58;;;;;;;26.63;19.10;;;;;;;15.29;74.79;100300.38;5160621;27;20047;-79
2021/08/15 04:38:26;;;;;;;34.65;19.30;;;;;;;15.27;74.54;100287.88;5161174;27;20054;-80
2021/08/15 04:40:53;;;;;;;31.13;20.77;;;;;;;15.29;74.20;100285.53;5160587;27;20061;-80
2021/08/15 04:43:22;;;;;;;27.92;18.50;;;;;;;15.29;74.53;100283.53;5160500;27;20055;-80
2021/08/15 04:45:52;;;;;;;26.38;17.88;;;;;;;15.29;74.42;100280.75;5159774;27;20066;-80
2021/08/15 04:48:20;;;;;;;25.25;18.10;;;;;;;15.27;74.44;100288.69;5158806;27;20054;-79
2021/08/15 04:50:50;;;;;;;24.15;17.70;;;;;;;15.35;74.18;100286.91;5160174;27;20051;-80
2021/08/15 04:53:17;;;;;;;22.13;15.75;;;;;;;15.39;73.52;100288.69;5160071;27;20486;-80
2021/08/15 04:55:44;;;;;;;23.23;14.68;;;;;;;15.47;72.86;100294.50;5145222;27;20402;-79
2021/08/15 04:58:12;;;;;;;21.25;14.75;;;;;;;15.45;73.31;100299.66;5151306;27;20043;-80
2021/08/15 05:00:41;;;;;;;23.00;15.85;;;;;;;15.45;72.89;100294.84;5158986;27;20055;-80
2021/08/15 05:03:08;;;;;;;21.05;16.30;;;;;;;15.51;72.93;100293.47;5159703;27;20050;-80
2021/08/15 05:05:39;;;;;;;22.38;15.60;;;;;;;15.55;73.07;100300.00;5159125;27;20058;-79
2021/08/15 05:08:07;;;;;;;22.42;15.85;;;;;;;15.65;72.89;100298.72;5159367;27;20054;-80
2021/08/15 05:10:35;;;;;;;22.08;15.93;;;;;;;15.64;72.77;100297.06;5159259;27;20056;-79
2021/08/15 05:13:03;;;;;;;23.70;15.05;;;;;;;15.73;72.87;100308.22;5159333;27;20058;-78
2021/08/15 05:15:30;;;;;;;20.90;15.43;;;;;;;15.83;72.55;100316.97;5158922;27;20051;-78
2021/08/15 05:17:59;;;;;;;24.73;16.45;;;;;;;15.93;72.28;100312.84;5158459;27;20058;-80
2021/08/15 05:20:26;;;;;;;21.52;15.90;;;;;;;16.02;72.02;100296.69;5159485;27;20517;-80
2021/08/15 05:22:56;;;;;;;27.60;16.67;;;;;;;16.07;71.95;100286.38;5159615;27;20420;-78
2021/08/15 05:25:24;;;;;;;22.58;15.75;;;;;;;16.14;72.13;100290.19;5158107;27;20051;-80
2021/08/15 05:27:53;;;;;;;25.17;17.77;;;;;;;16.09;72.71;100290.44;5159237;27;20057;-80
2021/08/15 05:30:21;;;;;;;22.45;17.40;;;;;;;16.29;72.47;100287.78;5159184;27;20061;-79
2021/08/15 05:32:48;;;;;;;23.83;18.13;;;;;;;16.43;72.57;100289.00;5159800;27;20046;-80
2021/08/15 05:35:17;;;;;;;27.30;19.65;;;;;;;16.56;72.68;100292.56;5159109;27;20050;-80
2021/08/15 05:37:45;;;;;;;28.00;18.25;;;;;;;16.72;72.53;100291.81;5158827;27;20057;-79
2021/08/15 05:40:14;;;;;;;27.50;18.95;;;;;;;16.84;72.41;100294.59;5158572;27;20047;-78
2021/08/15 05:42:41;;;;;;;26.90;18.75;;;;;;;16.99;71.99;100282.50;5158905;27;20062;-78
2021/08/15 05:45:10;;;;;;;22.35;15.38;;;;;;;17.15;70.99;100295.75;5158863;27;20043;-80
2021/08/15 05:47:37;;;;;;;22.40;15.73;;;;;;;17.25;70.46;100290.38;5159073;27;20062;-79
2021/08/15 05:50:09;;;;;;;19.15;15.02;;;;;;;17.38;69.50;100291.09;5158848;27;20463;-80
2021/08/15 05:52:38;;;;;;;20.02;13.68;;;;;;;17.53;68.63;100285.81;5159070;27;20054;-78
2021/08/15 05:55:07;;;;;;;16.33;13.75;;;;;;;17.68;68.22;100287.81;5158218;27;20055;-80
2021/08/15 05:57:34;;;;;;;19.63;15.37;;;;;;;17.81;67.91;100282.84;5157968;27;20071;-79
2021/08/15 06:00:03;;;;;;;19.98;14.95;;;;;;;17.94;67.61;100287.19;5158209;27;20483;-80
2021/08/15 06:02:30;;;;;;;22.15;15.70;;;;;;;18.11;67.04;100279.50;5158511;27;20058;-80
2021/08/15 06:04:58;;;;;;;21.52;15.93;;;;;;;18.25;66.53;100269.34;5158277;27;20058;-80
2021/08/15 06:07:25;;;;;;;23.23;16.13;;;;;;;18.35;66.52;100272.72;5158017;27;20478;-79
2021/08/15 06:09:54;;;;;;;21.40;15.68;;;;;;;18.52;66.12;100271.44;5157803;27;20055;-79
2021/08/15 06:12:21;;;;;;;21.20;15.82;;;;;;;18.63;65.96;100269.66;5158494;27;20061;-80
2021/08/15 06:14:48;;;;;;;19.10;15.55;;;;;;;18.80;65.56;100257.09;5157425;27;20053;-78
2021/08/15 06:17:16;;;;;;;25.15;16.50;;;;;;;18.99;65.21;100262.69;5157455;27;20505;-80
2021/08/15 06:19:43;;;;;;;22.77;16.20;;;;;;;19.16;64.83;100266.19;5157984;27;20395;-80
2021/08/15 06:22:11;;;;;;;21.45;16.05;;;;;;;19.32;64.79;100261.22;5158499;27;20062;-79
2021/08/15 06:24:38;;;;;;;23.02;16.40;;;;;;;19.49;64.34;100257.03;5156932;27;20165;-79
2021/08/15 06:27:07;;;;;;;21.15;15.43;;;;;;;19.63;63.78;100251.59;5157476;27;20043;-79
2021/08/15 06:29:34;;;;;;;20.50;14.80;;;;;;;19.73;63.60;100252.94;5158237;27;20053;-79
2021/08/15 06:32:01;;;;;;;19.88;15.70;;;;;;;19.84;63.39;100251.09;5157780;27;20398;-79
2021/08/15 06:34:29;;;;;;;21.23;16.23;;;;;;;19.99;62.73;100249.28;5157911;27;20050;-79
2021/08/15 06:36:56;;;;;;;22.98;15.90;;;;;;;20.09;62.39;100233.63;5157726;27;20055;-78
2021/08/15 06:39:24;;;;;;;20.33;15.63;;;;;;;20.34;62.20;100238.78;5157920;27;20062;-79
2021/08/15 06:41:51;;;;;;;22.45;15.95;;;;;;;20.53;61.80;100229.28;5157964;27;20062;-78
2021/08/15 06:44:20;;;;;;;21.52;16.17;;;;;;;20.67;61.44;100229.47;5157620;27;20066;-78
2021/08/15 06:46:47;;;;;;;23.58;16.42;;;;;;;20.81;61.22;100223.09;5157701;27;20050;-78
2021/08/15 06:49:14;;;;;;;22.58;15.25;;;;;;;20.90;61.23;100222.81;5156225;27;20066;-78
2021/08/15 06:51:44;;;;;;;19.40;15.32;;;;;;;21.00;61.10;100230.56;5157624;27;20054;-79
2021/08/15 06:54:11;;;;;;;21.83;14.73;;;;;;;21.13;60.83;100222.59;5156721;27;20058;-78
2021/08/15 06:56:41;;;;;;;18.27;15.25;;;;;;;21.25;60.93;100220.25;5158113;27;20050;-79
2021/08/15 06:59:09;;;;;;;19.85;15.02;;;;;;;21.52;60.60;100227.72;5157518;27;20047;-78
2021/08/15 07:01:38;;;;;;;19.55;14.45;;;;;;;21.71;59.54;100223.78;5156910;27;20047;-79
2021/08/15 07:04:05;;;;;;;17.55;13.00;;;;;;;21.85;59.49;100207.66;5157353;27;20039;-79
2021/08/15 07:06:33;;;;;;;16.60;12.82;;;;;;;21.97;59.56;100219.88;5157282;27;20050;-80
2021/08/15 07:09:00;;;;;;;17.90;12.35;;;;;;;22.05;59.41;100215.88;5156493;27;20053;-80
2021/08/15 07:11:27;;;;;;;15.88;13.40;;;;;;;22.22;59.54;100217.16;5157211;27;20075;-80
2021/08/15 07:13:55;;;;;;;17.88;13.07;;;;;;;22.39;58.43;100212.75;5157225;27;20047;-79
2021/08/15 07:16:22;;;;;;;15.38;11.77;;;;;;;22.57;57.84;100222.09;5157559;27;20062;-79
2021/08/15 07:18:51;;;;;;;16.35;11.00;;;;;;;22.85;57.42;100224.19;5157481;27;20051;-80
2021/08/15 07:21:19;;;;;;;14.73;11.25;;;;;;;23.35;57.59;100212.03;5157847;27;20514;-79
2021/08/15 07:23:46;;;;;;;15.43;10.50;;;;;;;24.17;54.22;100201.59;5156642;27;20427;-79
2021/08/15 07:26:14;;;;;;;14.45;9.48;;;;;;;24.87;52.63;100202.41;5156558;27;20447;-79
2021/08/15 07:28:42;;;;;;;15.68;9.07;;;;;;;25.29;51.20;100197.56;5156301;27;20445;-79
2021/08/15 07:31:09;;;;;;;14.85;8.88;;;;;;;25.30;50.38;100196.38;5156513;27;20053;-79
2021/08/15 07:33:37;;;;;;;12.35;7.93;;;;;;;25.67;49.04;100191.88;5153593;27;20058;-79
2021/08/15 07:36:06;;;;;;;11.35;6.78;;;;;;;26.40;46.77;100186.09;5157045;27;20384;-80
2021/08/15 07:38:34;;;;;;;8.80;5.88;;;;;;;26.61;44.96;100180.06;5156927;27;20062;-78
2021/08/15 07:41:01;;;;;;;9.30;6.25;;;;;;;26.36;44.90;100193.91;5156673;27;20050;-79
2021/08/15 07:43:30;;;;;;;10.32;6.50;;;;;;;26.22;45.62;100181.41;5156911;27;20062;-79
2021/08/15 07:45:58;;;;;;;8.68;6.45;;;;;;;26.66;45.04;100190.19;5156261;27;20074;-79
2021/08/15 07:48:26;;;;;;;8.05;5.82;;;;;;;27.18;43.84;100197.50;5156596;27;20054;-79
2021/08/15 07:50:54;;;;;;;12.13;5.97;;;;;;;28.02;42.20;100178.34;5156705;27;20162;-78
2021/08/15 07:53:24;;;;;;;9.27;5.80;;;;;;;28.99;39.40;100179.78;5155617;27;20043;-80
2021/08/15 07:55:54;;;;;;;9.82;5.88;;;;;;;29.64;38.44;100173.13;5142086;27;20057;-80
2021/08/15 07:58:22;;;;;;;8.40;5.78;;;;;;;30.48;36.38;100175.19;5156339;27;20054;-80
2021/08/15 08:00:51;;;;;;;8.77;5.25;;;;;;;30.65;35.71;100173.00;5156422;27;20058;-79
2021/08/15 08:03:19;;;;;;;7.88;5.47;;;;;;;31.20;34.77;100178.56;5157084;27;20051;-80
2021/08/15 08:05:47;;;;;;;6.75;4.70;;;;;;;32.09;32.80;100168.78;5156666;27;20050;-79
2021/08/15 08:08:15;;;;;;;8.27;5.23;;;;;;;31.89;32.83;100184.31;5156533;27;20050;-80
2021/08/15 08:10:44;;;;;;;6.93;4.95;;;;;;;32.03;32.65;100176.44;5155913;27;20054;-80
2021/08/15 08:13:12;;;;;;;7.00;4.95;;;;;;;32.28;32.53;100176.25;5156548;27;20061;-79
2021/08/15 08:15:40;;;;;;;9.82;4.65;;;;;;;31.42;33.50;100167.91;5154215;27;20049;-79
2021/08/15 08:18:09;;;;;;;9.30;5.28;;;;;;;30.93;34.47;100160.59;5135738;28;20051;-79
2021/08/15 08:20:37;;;;;;;6.68;4.50;;;;;;;30.10;35.70;100158.69;5136620;27;20055;-80
2021/08/15 08:23:05;;;;;;;9.02;5.45;;;;;;;29.44;37.81;100170.44;5139585;27;20055;-80
2021/08/15 08:25:32;;;;;;;6.97;5.07;;;;;;;29.26;38.47;100167.22;5160491;27;20105;-80
2021/08/15 08:28:03;;;;;;;6.80;5.00;;;;;;;29.39;38.06;100156.59;5159347;27;20051;-80
2021/08/15 08:30:31;;;;;;;6.03;4.60;;;;;;;29.53;37.87;100158.28;5160971;27;20047;-80
2021/08/15 08:32:59;;;;;;;7.55;4.38;;;;;;;29.63;36.82;100153.47;5142726;27;20046;-79
2021/08/15 08:35:28;;;;;;;7.07;4.40;;;;;;;30.12;36.51;100142.59;5159305;27;20043;-80
2021/08/15 08:37:56;;;;;;;9.50;4.90;;;;;;;31.06;34.65;100140.41;5157978;27;20050;-80
2021/08/15 08:40:23;;;;;;;6.43;3.85;;;;;;;30.88;34.71;100143.09;5159900;27;20057;-80
2021/08/15 08:42:51;;;;;;;5.38;3.65;;;;;;;30.87;34.37;100144.34;5158532;27;20415;-80
2021/08/15 08:45:23;;;;;;;6.43;4.30;;;;;;;31.82;32.49;100126.97;5159526;27;20491;-80
2021/08/15 08:47:51;;;;;;;6.65;3.88;;;;;;;31.93;32.54;100130.22;5158270;27;20050;-80
2021/08/15 08:50:20;;;;;;;6.50;4.05;;;;;;;32.89;31.02;100121.06;5146486;27;20042;-79
2021/08/15 08:52:47;;;;;;;6.75;3.38;;;;;;;34.17;29.19;100119.44;5158665;27;20055;-80
2021/08/15 08:55:18;;;;;;;4.30;2.80;;;;;;;34.18;28.47;100112.34;5159391;27;20046;-80
2021/08/15 08:57:46;;;;;;;5.28;3.25;;;;;;;34.76;27.00;100114.03;5159383;27;20069;-80
2021/08/15 09:00:14;;;;;;;7.03;2.90;;;;;;;33.60;27.97;100104.72;5159401;27;20050;-80
2021/08/15 09:02:43;;;;;;;7.65;2.97;;;;;;;33.28;28.90;100113.56;5159503;27;20054;-80
2021/08/15 09:05:11;;;;;;;6.10;3.03;;;;;;;32.20;30.79;100120.16;5159604;27;20456;-80
2021/08/15 09:07:40;;;;;;;6.72;3.30;;;;;;;31.21;32.18;100126.31;5159145;27;20494;-80
2021/08/15 09:10:10;;;;;;;4.50;2.80;;;;;;;30.73;33.34;100148.50;5158774;27;20073;-80
2021/08/15 09:12:39;;;;;;;5.45;3.10;;;;;;;29.98;34.82;100142.25;5158802;27;20043;-79
2021/08/15 09:15:12;;;;;;;6.47;3.00;;;;;;;29.65;35.69;100122.25;5156862;27;20467;-81
2021/08/15 09:17:41;;;;;;;6.03;2.80;;;;;;;29.76;35.35;100117.06;5159468;27;20409;-80
2021/08/15 09:20:12;;;;;;;6.25;3.00;;;;;;;30.23;34.41;100136.53;5156979;27;20475;-80
2021/08/15 09:22:40;;;;;;;4.38;2.47;;;;;;;29.63;35.53;100139.13;5160294;27;20050;-80
2021/08/15 09:25:11;;;;;;;6.05;2.97;;;;;;;30.19;35.27;100138.69;5161263;27;20057;-80
2021/08/15 09:27:44;;;;;;;5.85;3.38;;;;;;;29.45;35.96;100128.97;5159488;27;20050;-80
2021/08/15 09:30:21;;;;;;;5.72;3.10;;;;;;;29.05;35.78;100128.44;5161294;27;20047;-80
2021/08/15 09:32:51;;;;;;;6.70;3.15;;;;;;;29.07;36.51;100126.72;5161034;27;20056;-79
2021/08/15 09:35:23;;;;;;;5.43;2.70;;;;;;;29.14;36.62;100126.53;5161612;27;20053;-79
2021/08/15 09:38:10;;;;;;;5.35;3.00;;;;;;;29.48;36.35;100125.22;5160910;27;20055;-80
2021/08/15 09:40:39;;;;;;;6.75;2.60;;;;;;;29.33;36.18;100129.72;5161822;27;20058;-78
2021/08/15 09:43:12;;;;;;;4.45;2.72;;;;;;;29.68;35.73;100122.16;5160833;27;20495;-79
2021/08/15 09:45:45;;;;;;;6.38;3.00;;;;;;;29.95;35.07;100127.53;5161293;27;20474;-78
2021/08/15 09:48:20;;;;;;;4.80;3.03;;;;;;;30.19;35.30;100132.16;5160474;27;20069;-79
2021/08/15 09:51:15;;;;;;;5.20;2.80;;;;;;;30.03;35.01;100116.63;5158533;27;20064;-80
2021/08/15 09:53:49;;;;;;;6.15;3.40;;;;;;;30.18;34.99;100125.63;5158884;27;20471;-82
2021/08/15 09:56:31;;;;;;;5.50;2.88;;;;;;;30.61;34.14;100127.13;5158522;27;20047;-81
2021/08/15 09:59:13;;;;;;;4.95;3.05;;;;;;;30.44;33.70;100120.69;5159260;27;20054;-81
2021/08/15 10:01:42;;;;;;;4.72;2.80;;;;;;;30.88;33.86;100115.13;5159749;27;20351;-79
2021/08/15 10:04:10;;;;;;;4.32;2.97;;;;;;;30.46;34.64;100117.38;5158393;27;20051;-79
2021/08/15 10:06:40;;;;;;;6.13;2.80;;;;;;;30.98;34.03;100116.03;5158443;27;20043;-78
2021/08/15 10:09:08;;;;;;;4.60;2.80;;;;;;;30.95;34.15;100116.94;5158549;27;20475;-78
2021/08/15 10:11:37;;;;;;;5.57;2.78;;;;;;;30.85;33.66;100113.16;5158530;27;20046;-79
2021/08/15 10:14:10;;;;;;;6.80;3.17;;;;;;;32.56;29.96;100105.09;5158454;27;20059;-78
2021/08/15 10:16:40;;;;;;;6.15;3.22;;;;;;;34.67;27.49;100099.63;5159377;27;20047;-79
2021/08/15 10:19:10;;;;;;;5.07;3.40;;;;;;;36.01;24.83;100104.94;5137867;27;20375;-79
2021/08/15 10:21:42;;;;;;;4.97;3.10;;;;;;;36.17;26.13;100092.84;5129307;27;20048;-79
2021/08/15 10:24:12;;;;;;;6.10;2.75;;;;;;;36.89;23.80;100089.44;5126851;27;20479;-79
2021/08/15 10:26:46;;;;;;;6.35;2.90;;;;;;;36.57;24.11;100095.03;5128263;27;20058;-78
2021/08/15 10:29:36;;;;;;;5.15;2.55;;;;;;;35.58;25.75;100105.19;5126644;27;20051;-78
2021/08/15 10:32:15;;;;;;;4.15;2.92;;;;;;;35.32;25.97;100093.38;5115928;28;20055;-78
2021/08/15 10:35:12;;;;;;;3.92;3.00;;;;;;;36.46;24.10;100091.19;5115139;28;20055;-79
2021/08/15 10:37:41;;;;;;;5.57;2.50;;;;;;;36.60;24.73;100078.72;5130666;27;20499;-79
2021/08/15 10:40:56;;;;;;;5.07;2.85;;;;;;;37.18;23.57;100082.72;5136123;27;20387;-79
2021/08/15 10:43:59;;;;;;;3.88;2.65;;;;;;;36.68;24.48;100079.13;5136896;27;20058;-78
2021/08/15 10:46:27;;;;;;;4.60;2.60;;;;;;;35.91;24.86;100086.84;5022480;28;20066;-78
2021/08/15 10:48:57;;;;;;;5.15;2.63;;;;;;;35.73;25.46;100073.38;5012859;28;20060;-78
2021/08/15 10:51:46;;;;;;;4.38;2.65;;;;;;;35.53;26.20;100077.72;5061672;28;20052;-79
2021/08/15 10:55:05;;;;;;;3.17;2.47;;;;;;;36.76;24.53;100069.47;5104595;28;20054;-79
2021/08/15 10:57:46;;;;;;;4.70;2.60;;;;;;;38.00;22.64;100066.38;5134777;27;20058;-79
2021/08/15 11:00:43;;;;;;;3.78;2.75;;;;;;;37.61;23.57;100066.81;5135984;27;20051;-79
2021/08/15 11:03:38;;;;;;;3.83;2.30;;;;;;;37.00;24.13;100062.66;5136250;27;20054;-78
2021/08/15 11:06:27;;;;;;;6.55;2.67;;;;;;;36.89;24.28;100050.91;5134915;27;20066;-78
2021/08/15 11:08:58;;;;;;;3.97;2.17;;;;;;;37.13;23.99;100060.22;5135952;27;20063;-78
2021/08/15 11:11:26;;;;;;;3.28;2.20;;;;;;;37.31;23.55;100058.28;5135649;27;20375;-78
2021/08/15 11:14:26;;;;;;;8.27;2.72;;;;;;;36.99;23.34;100061.06;5135943;27;20459;-78
2021/08/15 11:16:58;;;;;;;5.97;2.90;;;;;;;37.20;23.75;100053.16;5128168;28;20055;-79
2021/08/15 11:19:33;;;;;;;4.95;2.70;;;;;;;37.48;22.35;100056.34;5115435;28;20059;-79
2021/08/15 11:22:15;;;;;;;4.85;2.30;;;;;;;38.54;21.70;100052.00;5114786;28;20051;-79
2021/08/15 11:24:53;;;;;;;10.10;7.65;;;;;;;39.69;20.92;100055.59;5114116;28;20495;-79
2021/08/15 11:27:32;;;;;;;3.38;2.67;;;;;;;39.85;20.54;100046.09;5114814;28;20051;-79
2021/08/15 11:30:02;;;;;;;4.15;2.10;;;;;;;40.77;19.51;100046.22;5114823;28;20048;-79